sensor_id;sensor_type;location;lat;lon;timestamp;temperature;humidity
11126;DHT22;5617;54.046;10.676;2023-04-03T00:00:14;1.10;99.90
11126;DHT22;5617;54.046;10.676;2023-04-03T00:02:21;1.10;99.90
11126;DHT22;5617;54.046;10.676;2023-04-03T00:04:29;1.10;99.90
11126;DHT22;5617;54.046;10.676;2023-04-03T00:06:37;1.00;99.90
11126;DHT22;5617;54.046;10.676;2023-04-03T00:08:45;1.00;99.90
11126;DHT22;5617;54.046;10.676;2023-04-03T00:10:54;0.90;99.90
11126;DHT22;5617;54.046;10.676;2023-04-03T00:13:02;0.90;99.90
11126;DHT22;5617;54.046;10.676;2023-04-03T00:15:12;0.90;99.90
11126;DHT22;5617;54.046;10.676;2023-04-03T00:17:19;0.90;99.90
11126;DHT22;5617;54.046;10.676;2023-04-03T00:19:27;0.80;99.90
11126;DHT22;5617;54.046;10.676;2023-04-03T00:21:36;0.80;99.90
11126;DHT22;5617;54.046;10.676;2023-04-03T00:23:43;0.80;99.90
11126;DHT22;5617;54.046;10.676;2023-04-03T00:25:51;0.80;99.90
11126;DHT22;5617;54.046;10.676;2023-04-03T00:28:02;0.80;99.90
11126;DHT22;5617;54.046;10.676;2023-04-03T00:30:13;0.80;99.90
11126;DHT22;5617;54.046;10.676;2023-04-03T00:32:21;0.80;99.90
11126;DHT22;5617;54.046;10.676;2023-04-03T00:34:29;0.80;99.90
11126;DHT22;5617;54.046;10.676;2023-04-03T00:36:37;0.80;99.90
11126;DHT22;5617;54.046;10.676;2023-04-03T00:38:45;0.80;99.90
11126;DHT22;5617;54.046;10.676;2023-04-03T00:40:52;0.70;99.90
11126;DHT22;5617;54.046;10.676;2023-04-03T00:43:02;0.70;99.90
11126;DHT22;5617;54.046;10.676;2023-04-03T00:45:32;0.70;99.90
11126;DHT22;5617;54.046;10.676;2023-04-03T00:47:41;0.70;99.90
11126;DHT22;5617;54.046;10.676;2023-04-03T00:49:49;0.70;99.90
11126;DHT22;5617;54.046;10.676;2023-04-03T00:51:59;0.80;99.90
11126;DHT22;5617;54.046;10.676;2023-04-03T00:54:08;0.80;99.90
11126;DHT22;5617;54.046;10.676;2023-04-03T00:56:18;0.80;99.90
11126;DHT22;5617;54.046;10.676;2023-04-03T00:58:42;0.70;99.90
11126;DHT22;5617;54.046;10.676;2023-04-03T01:00:54;0.70;99.90
11126;DHT22;5617;54.046;10.676;2023-04-03T01:03:04;0.70;99.90
11126;DHT22;5617;54.046;10.676;2023-04-03T01:05:12;0.70;99.90
11126;DHT22;5617;54.046;10.676;2023-04-03T01:07:24;0.70;99.90
11126;DHT22;5617;54.046;10.676;2023-04-03T01:09:34;0.70;99.90
11126;DHT22;5617;54.046;10.676;2023-04-03T01:11:42;0.80;99.90
11126;DHT22;5617;54.046;10.676;2023-04-03T01:13:51;0.70;99.90
11126;DHT22;5617;54.046;10.676;2023-04-03T01:16:01;0.60;99.90
11126;DHT22;5617;54.046;10.676;2023-04-03T01:18:10;0.70;99.90
11126;DHT22;5617;54.046;10.676;2023-04-03T01:23:06;0.60;99.90
11126;DHT22;5617;54.046;10.676;2023-04-03T01:25:19;0.50;99.90
11126;DHT22;5617;54.046;10.676;2023-04-03T01:27:27;0.50;99.90
11126;DHT22;5617;54.046;10.676;2023-04-03T01:29:37;0.50;99.90
11126;DHT22;5617;54.046;10.676;2023-04-03T01:31:52;0.50;99.90
11126;DHT22;5617;54.046;10.676;2023-04-03T01:34:00;0.60;99.90
11126;DHT22;5617;54.046;10.676;2023-04-03T01:36:14;0.50;99.90
11126;DHT22;5617;54.046;10.676;2023-04-03T01:38:22;0.50;99.90
11126;DHT22;5617;54.046;10.676;2023-04-03T01:40:30;0.50;99.90
11126;DHT22;5617;54.046;10.676;2023-04-03T01:42:38;0.50;99.90
11126;DHT22;5617;54.046;10.676;2023-04-03T01:44:45;0.50;99.90
11126;DHT22;5617;54.046;10.676;2023-04-03T01:46:55;0.50;99.90
11126;DHT22;5617;54.046;10.676;2023-04-03T01:49:02;0.50;99.90
11126;DHT22;5617;54.046;10.676;2023-04-03T01:51:10;0.50;99.90
11126;DHT22;5617;54.046;10.676;2023-04-03T01:53:18;0.50;99.90
11126;DHT22;5617;54.046;10.676;2023-04-03T01:55:26;0.50;99.90
11126;DHT22;5617;54.046;10.676;2023-04-03T01:57:36;0.50;99.90
11126;DHT22;5617;54.046;10.676;2023-04-03T01:59:51;0.50;99.90
11126;DHT22;5617;54.046;10.676;2023-04-03T02:02:00;0.50;99.90
11126;DHT22;5617;54.046;10.676;2023-04-03T02:04:08;0.50;99.90
11126;DHT22;5617;54.046;10.676;2023-04-03T02:06:16;0.50;99.90
11126;DHT22;5617;54.046;10.676;2023-04-03T02:08:23;0.40;99.90
11126;DHT22;5617;54.046;10.676;2023-04-03T02:10:31;0.40;99.90
11126;DHT22;5617;54.046;10.676;2023-04-03T02:12:39;0.40;99.90
11126;DHT22;5617;54.046;10.676;2023-04-03T02:14:47;0.50;99.90
11126;DHT22;5617;54.046;10.676;2023-04-03T02:16:54;0.30;99.90
11126;DHT22;5617;54.046;10.676;2023-04-03T02:19:03;0.30;99.90
11126;DHT22;5617;54.046;10.676;2023-04-03T02:21:11;0.30;99.90
11126;DHT22;5617;54.046;10.676;2023-04-03T02:23:19;0.30;99.90
11126;DHT22;5617;54.046;10.676;2023-04-03T02:25:27;0.30;99.90
11126;DHT22;5617;54.046;10.676;2023-04-03T02:27:34;0.30;99.90
11126;DHT22;5617;54.046;10.676;2023-04-03T02:29:42;0.30;99.90
11126;DHT22;5617;54.046;10.676;2023-04-03T02:31:50;0.30;99.90
11126;DHT22;5617;54.046;10.676;2023-04-03T02:33:57;0.20;99.90
11126;DHT22;5617;54.046;10.676;2023-04-03T02:36:07;0.20;99.90
11126;DHT22;5617;54.046;10.676;2023-04-03T02:38:15;0.20;99.90
11126;DHT22;5617;54.046;10.676;2023-04-03T02:40:23;0.20;99.90
11126;DHT22;5617;54.046;10.676;2023-04-03T02:42:30;0.10;99.90
11126;DHT22;5617;54.046;10.676;2023-04-03T02:44:37;0.10;99.90
11126;DHT22;5617;54.046;10.676;2023-04-03T02:46:45;0.10;99.90
11126;DHT22;5617;54.046;10.676;2023-04-03T02:48:53;0.10;99.90
11126;DHT22;5617;54.046;10.676;2023-04-03T02:51:00;0.10;99.90
11126;DHT22;5617;54.046;10.676;2023-04-03T02:53:09;0.10;99.90
11126;DHT22;5617;54.046;10.676;2023-04-03T02:55:18;0.10;99.90
11126;DHT22;5617;54.046;10.676;2023-04-03T02:57:26;0.10;99.90
11126;DHT22;5617;54.046;10.676;2023-04-03T02:59:33;0.10;99.90
11126;DHT22;5617;54.046;10.676;2023-04-03T03:01:41;0.10;99.90
11126;DHT22;5617;54.046;10.676;2023-04-03T03:03:49;0.10;99.90
11126;DHT22;5617;54.046;10.676;2023-04-03T03:06:03;0.10;99.90
11126;DHT22;5617;54.046;10.676;2023-04-03T03:08:13;0.10;99.90
11126;DHT22;5617;54.046;10.676;2023-04-03T03:10:21;0.10;99.90
11126;DHT22;5617;54.046;10.676;2023-04-03T03:12:28;0.10;99.90
11126;DHT22;5617;54.046;10.676;2023-04-03T03:14:36;0.10;99.90
11126;DHT22;5617;54.046;10.676;2023-04-03T03:16:44;0.10;99.90
11126;DHT22;5617;54.046;10.676;2023-04-03T03:18:52;0.10;99.90
11126;DHT22;5617;54.046;10.676;2023-04-03T03:21:01;0.10;99.90
11126;DHT22;5617;54.046;10.676;2023-04-03T03:23:09;0.10;99.90
11126;DHT22;5617;54.046;10.676;2023-04-03T03:25:18;0.00;99.90
11126;DHT22;5617;54.046;10.676;2023-04-03T03:27:26;0.10;99.90
11126;DHT22;5617;54.046;10.676;2023-04-03T03:29:34;0.10;99.90
11126;DHT22;5617;54.046;10.676;2023-04-03T03:31:41;0.10;99.90
11126;DHT22;5617;54.046;10.676;2023-04-03T03:33:49;0.00;99.90
11126;DHT22;5617;54.046;10.676;2023-04-03T03:35:57;0.00;99.90
11126;DHT22;5617;54.046;10.676;2023-04-03T03:38:04;-0.10;99.90
11126;DHT22;5617;54.046;10.676;2023-04-03T03:40:12;-0.10;99.90
11126;DHT22;5617;54.046;10.676;2023-04-03T03:42:22;-0.10;99.90
11126;DHT22;5617;54.046;10.676;2023-04-03T03:44:30;-0.20;99.90
11126;DHT22;5617;54.046;10.676;2023-04-03T03:46:37;-0.20;99.90
11126;DHT22;5617;54.046;10.676;2023-04-03T03:48:45;-0.20;99.90
11126;DHT22;5617;54.046;10.676;2023-04-03T03:50:53;-0.20;99.90
11126;DHT22;5617;54.046;10.676;2023-04-03T03:53:00;-0.30;99.90
11126;DHT22;5617;54.046;10.676;2023-04-03T03:55:08;-0.30;99.90
11126;DHT22;5617;54.046;10.676;2023-04-03T03:57:16;-0.30;99.90
11126;DHT22;5617;54.046;10.676;2023-04-03T03:59:28;-0.30;99.90
11126;DHT22;5617;54.046;10.676;2023-04-03T04:01:36;-0.40;99.90
11126;DHT22;5617;54.046;10.676;2023-04-03T04:03:44;-0.40;99.90
11126;DHT22;5617;54.046;10.676;2023-04-03T04:05:51;-0.50;99.90
11126;DHT22;5617;54.046;10.676;2023-04-03T04:07:59;-0.50;99.90
11126;DHT22;5617;54.046;10.676;2023-04-03T04:10:08;-0.50;99.90
11126;DHT22;5617;54.046;10.676;2023-04-03T04:12:15;-0.50;99.90
11126;DHT22;5617;54.046;10.676;2023-04-03T04:14:23;-0.40;99.90
11126;DHT22;5617;54.046;10.676;2023-04-03T04:16:32;-0.50;99.90
11126;DHT22;5617;54.046;10.676;2023-04-03T04:18:40;-0.50;99.90
11126;DHT22;5617;54.046;10.676;2023-04-03T04:20:47;-0.50;99.90
11126;DHT22;5617;54.046;10.676;2023-04-03T04:22:55;-0.40;99.90
11126;DHT22;5617;54.046;10.676;2023-04-03T04:25:03;-0.50;99.90
11126;DHT22;5617;54.046;10.676;2023-04-03T04:27:11;-0.50;99.90
11126;DHT22;5617;54.046;10.676;2023-04-03T04:29:19;-0.50;99.90
11126;DHT22;5617;54.046;10.676;2023-04-03T04:31:27;-0.50;99.90
11126;DHT22;5617;54.046;10.676;2023-04-03T04:33:36;-0.50;99.90
11126;DHT22;5617;54.046;10.676;2023-04-03T04:35:43;-0.50;99.90
11126;DHT22;5617;54.046;10.676;2023-04-03T04:37:51;-0.50;99.90
11126;DHT22;5617;54.046;10.676;2023-04-03T04:39:59;-0.50;99.90
11126;DHT22;5617;54.046;10.676;2023-04-03T04:42:07;-0.50;99.90
11126;DHT22;5617;54.046;10.676;2023-04-03T04:44:19;-0.50;99.90
11126;DHT22;5617;54.046;10.676;2023-04-03T04:46:26;-0.50;99.90
11126;DHT22;5617;54.046;10.676;2023-04-03T04:48:36;-0.50;99.90
11126;DHT22;5617;54.046;10.676;2023-04-03T04:50:44;-0.50;99.90
11126;DHT22;5617;54.046;10.676;2023-04-03T04:52:51;-0.50;99.90
11126;DHT22;5617;54.046;10.676;2023-04-03T04:54:59;-0.60;99.90
11126;DHT22;5617;54.046;10.676;2023-04-03T04:57:07;-0.50;99.90
11126;DHT22;5617;54.046;10.676;2023-04-03T04:59:15;-0.50;99.90
11126;DHT22;5617;54.046;10.676;2023-04-03T05:01:23;-0.50;99.90
11126;DHT22;5617;54.046;10.676;2023-04-03T05:03:31;-0.50;99.90
11126;DHT22;5617;54.046;10.676;2023-04-03T05:05:40;-0.40;99.90
11126;DHT22;5617;54.046;10.676;2023-04-03T05:07:48;-0.50;99.90
11126;DHT22;5617;54.046;10.676;2023-04-03T05:09:56;-0.50;99.90
11126;DHT22;5617;54.046;10.676;2023-04-03T05:12:03;-0.40;99.90
11126;DHT22;5617;54.046;10.676;2023-04-03T05:14:11;-0.40;99.90
11126;DHT22;5617;54.046;10.676;2023-04-03T05:16:19;-0.40;99.90
11126;DHT22;5617;54.046;10.676;2023-04-03T05:18:26;-0.40;99.90
11126;DHT22;5617;54.046;10.676;2023-04-03T05:20:34;-0.30;99.90
11126;DHT22;5617;54.046;10.676;2023-04-03T05:22:44;-0.30;99.90
11126;DHT22;5617;54.046;10.676;2023-04-03T05:24:52;-0.20;99.90
11126;DHT22;5617;54.046;10.676;2023-04-03T05:26:59;-0.20;99.90
11126;DHT22;5617;54.046;10.676;2023-04-03T05:29:08;-0.10;99.90
11126;DHT22;5617;54.046;10.676;2023-04-03T05:31:18;0.00;99.90
11126;DHT22;5617;54.046;10.676;2023-04-03T05:33:26;0.10;99.90
11126;DHT22;5617;54.046;10.676;2023-04-03T05:35:36;0.20;99.90
11126;DHT22;5617;54.046;10.676;2023-04-03T05:37:46;0.20;99.90
11126;DHT22;5617;54.046;10.676;2023-04-03T05:39:54;0.30;99.90
11126;DHT22;5617;54.046;10.676;2023-04-03T05:42:02;0.40;99.90
11126;DHT22;5617;54.046;10.676;2023-04-03T05:44:09;0.50;99.90
11126;DHT22;5617;54.046;10.676;2023-04-03T05:46:18;0.50;99.90
11126;DHT22;5617;54.046;10.676;2023-04-03T05:48:27;0.60;99.90
11126;DHT22;5617;54.046;10.676;2023-04-03T05:50:34;0.70;99.90
11126;DHT22;5617;54.046;10.676;2023-04-03T05:52:50;0.80;99.90
11126;DHT22;5617;54.046;10.676;2023-04-03T05:55:03;0.90;99.90
11126;DHT22;5617;54.046;10.676;2023-04-03T05:57:11;1.00;99.90
11126;DHT22;5617;54.046;10.676;2023-04-03T05:59:19;1.10;99.90
11126;DHT22;5617;54.046;10.676;2023-04-03T06:01:27;1.20;99.90
11126;DHT22;5617;54.046;10.676;2023-04-03T06:03:35;1.20;99.90
11126;DHT22;5617;54.046;10.676;2023-04-03T06:05:43;1.30;99.90
11126;DHT22;5617;54.046;10.676;2023-04-03T06:07:54;1.40;99.90
11126;DHT22;5617;54.046;10.676;2023-04-03T06:10:05;1.50;99.90
11126;DHT22;5617;54.046;10.676;2023-04-03T06:12:13;1.60;99.90
11126;DHT22;5617;54.046;10.676;2023-04-03T06:14:21;1.70;99.90
11126;DHT22;5617;54.046;10.676;2023-04-03T06:16:29;1.80;99.90
11126;DHT22;5617;54.046;10.676;2023-04-03T06:18:37;1.90;99.90
11126;DHT22;5617;54.046;10.676;2023-04-03T06:20:45;2.00;99.90
11126;DHT22;5617;54.046;10.676;2023-04-03T06:22:54;2.10;99.90
11126;DHT22;5617;54.046;10.676;2023-04-03T06:25:03;2.10;99.90
11126;DHT22;5617;54.046;10.676;2023-04-03T06:27:11;2.30;99.90
11126;DHT22;5617;54.046;10.676;2023-04-03T06:29:20;2.50;99.90
11126;DHT22;5617;54.046;10.676;2023-04-03T06:31:27;2.60;99.90
11126;DHT22;5617;54.046;10.676;2023-04-03T06:33:36;2.70;99.90
11126;DHT22;5617;54.046;10.676;2023-04-03T06:35:44;2.80;99.90
11126;DHT22;5617;54.046;10.676;2023-04-03T06:37:51;2.90;99.90
11126;DHT22;5617;54.046;10.676;2023-04-03T06:40:01;3.00;99.90
11126;DHT22;5617;54.046;10.676;2023-04-03T06:42:09;3.20;99.90
11126;DHT22;5617;54.046;10.676;2023-04-03T06:44:17;3.30;99.90
11126;DHT22;5617;54.046;10.676;2023-04-03T06:46:26;3.40;99.90
11126;DHT22;5617;54.046;10.676;2023-04-03T06:48:34;3.60;99.90
11126;DHT22;5617;54.046;10.676;2023-04-03T06:50:42;3.70;99.90
11126;DHT22;5617;54.046;10.676;2023-04-03T06:52:50;3.80;99.90
11126;DHT22;5617;54.046;10.676;2023-04-03T06:54:57;4.00;99.90
11126;DHT22;5617;54.046;10.676;2023-04-03T06:57:08;4.10;99.90
11126;DHT22;5617;54.046;10.676;2023-04-03T06:59:16;4.30;99.90
11126;DHT22;5617;54.046;10.676;2023-04-03T07:01:25;4.40;99.90
11126;DHT22;5617;54.046;10.676;2023-04-03T07:03:34;4.60;99.90
11126;DHT22;5617;54.046;10.676;2023-04-03T07:05:43;4.80;99.90
11126;DHT22;5617;54.046;10.676;2023-04-03T07:07:52;5.00;99.90
11126;DHT22;5617;54.046;10.676;2023-04-03T07:10:00;5.10;99.90
11126;DHT22;5617;54.046;10.676;2023-04-03T07:12:09;5.30;99.90
11126;DHT22;5617;54.046;10.676;2023-04-03T07:14:17;5.50;99.90
11126;DHT22;5617;54.046;10.676;2023-04-03T07:16:24;5.70;99.90
11126;DHT22;5617;54.046;10.676;2023-04-03T07:18:33;5.90;99.90
11126;DHT22;5617;54.046;10.676;2023-04-03T07:20:41;6.10;99.90
11126;DHT22;5617;54.046;10.676;2023-04-03T07:22:48;6.20;99.90
11126;DHT22;5617;54.046;10.676;2023-04-03T07:24:57;6.30;99.90
11126;DHT22;5617;54.046;10.676;2023-04-03T07:27:05;6.40;99.90
11126;DHT22;5617;54.046;10.676;2023-04-03T07:29:16;6.60;99.90
11126;DHT22;5617;54.046;10.676;2023-04-03T07:31:23;6.80;99.90
11126;DHT22;5617;54.046;10.676;2023-04-03T07:33:32;6.90;99.90
11126;DHT22;5617;54.046;10.676;2023-04-03T07:35:41;7.00;99.90
11126;DHT22;5617;54.046;10.676;2023-04-03T07:37:48;7.00;99.90
11126;DHT22;5617;54.046;10.676;2023-04-03T07:39:56;7.20;99.90
11126;DHT22;5617;54.046;10.676;2023-04-03T07:42:05;7.30;99.90
11126;DHT22;5617;54.046;10.676;2023-04-03T07:44:13;7.40;99.90
11126;DHT22;5617;54.046;10.676;2023-04-03T07:46:23;7.50;99.90
11126;DHT22;5617;54.046;10.676;2023-04-03T07:48:31;7.40;99.90
11126;DHT22;5617;54.046;10.676;2023-04-03T07:50:40;7.30;99.90
11126;DHT22;5617;54.046;10.676;2023-04-03T07:52:48;7.10;99.90
11126;DHT22;5617;54.046;10.676;2023-04-03T07:54:57;7.10;99.90
11126;DHT22;5617;54.046;10.676;2023-04-03T07:57:04;7.20;99.90
11126;DHT22;5617;54.046;10.676;2023-04-03T07:59:13;7.30;99.90
11126;DHT22;5617;54.046;10.676;2023-04-03T08:01:23;7.40;99.90
11126;DHT22;5617;54.046;10.676;2023-04-03T08:03:31;7.60;99.90
11126;DHT22;5617;54.046;10.676;2023-04-03T08:05:39;7.80;99.90
11126;DHT22;5617;54.046;10.676;2023-04-03T08:07:47;7.80;99.90
11126;DHT22;5617;54.046;10.676;2023-04-03T08:09:55;7.60;99.90
11126;DHT22;5617;54.046;10.676;2023-04-03T08:12:03;7.50;99.90
11126;DHT22;5617;54.046;10.676;2023-04-03T08:14:11;7.70;99.90
11126;DHT22;5617;54.046;10.676;2023-04-03T08:16:24;7.90;99.90
11126;DHT22;5617;54.046;10.676;2023-04-03T08:18:33;8.20;99.90
11126;DHT22;5617;54.046;10.676;2023-04-03T08:20:41;8.10;99.50
11126;DHT22;5617;54.046;10.676;2023-04-03T08:22:48;8.20;99.60
11126;DHT22;5617;54.046;10.676;2023-04-03T08:24:56;8.10;99.30
11126;DHT22;5617;54.046;10.676;2023-04-03T08:27:04;8.20;99.10
11126;DHT22;5617;54.046;10.676;2023-04-03T08:29:12;8.20;99.20
11126;DHT22;5617;54.046;10.676;2023-04-03T08:31:20;8.40;99.20
11126;DHT22;5617;54.046;10.676;2023-04-03T08:33:30;8.50;98.70
11126;DHT22;5617;54.046;10.676;2023-04-03T08:35:41;8.50;98.40
11126;DHT22;5617;54.046;10.676;2023-04-03T08:37:48;8.40;98.40
11126;DHT22;5617;54.046;10.676;2023-04-03T08:39:56;8.30;98.10
11126;DHT22;5617;54.046;10.676;2023-04-03T08:42:14;8.40;98.10
11126;DHT22;5617;54.046;10.676;2023-04-03T08:44:25;8.40;97.90
11126;DHT22;5617;54.046;10.676;2023-04-03T08:46:47;8.50;97.70
11126;DHT22;5617;54.046;10.676;2023-04-03T08:48:58;8.60;97.40
11126;DHT22;5617;54.046;10.676;2023-04-03T08:51:12;8.60;97.30
11126;DHT22;5617;54.046;10.676;2023-04-03T08:53:24;8.70;97.40
11126;DHT22;5617;54.046;10.676;2023-04-03T08:55:37;8.80;97.20
11126;DHT22;5617;54.046;10.676;2023-04-03T08:57:48;8.90;97.00
11126;DHT22;5617;54.046;10.676;2023-04-03T09:00:02;8.70;97.00
11126;DHT22;5617;54.046;10.676;2023-04-03T09:02:23;8.80;97.10
11126;DHT22;5617;54.046;10.676;2023-04-03T09:04:34;8.70;96.80
11126;DHT22;5617;54.046;10.676;2023-04-03T09:06:44;8.60;96.40
11126;DHT22;5617;54.046;10.676;2023-04-03T09:09:06;8.80;96.60
11126;DHT22;5617;54.046;10.676;2023-04-03T09:11:19;8.80;96.30
11126;DHT22;5617;54.046;10.676;2023-04-03T09:13:33;8.80;96.50
11126;DHT22;5617;54.046;10.676;2023-04-03T09:15:45;8.80;96.60
11126;DHT22;5617;54.046;10.676;2023-04-03T09:17:59;8.80;96.30
11126;DHT22;5617;54.046;10.676;2023-04-03T09:20:16;9.00;96.60
11126;DHT22;5617;54.046;10.676;2023-04-03T09:22:28;9.20;96.20
11126;DHT22;5617;54.046;10.676;2023-04-03T09:24:39;9.20;96.00
11126;DHT22;5617;54.046;10.676;2023-04-03T09:26:51;9.20;95.90
11126;DHT22;5617;54.046;10.676;2023-04-03T09:29:06;9.20;96.00
11126;DHT22;5617;54.046;10.676;2023-04-03T09:31:20;9.30;95.40
11126;DHT22;5617;54.046;10.676;2023-04-03T09:33:30;9.10;95.20
11126;DHT22;5617;54.046;10.676;2023-04-03T09:35:40;9.20;95.30
11126;DHT22;5617;54.046;10.676;2023-04-03T09:37:49;9.40;95.30
11126;DHT22;5617;54.046;10.676;2023-04-03T09:39:58;9.40;95.10
11126;DHT22;5617;54.046;10.676;2023-04-03T09:42:16;9.60;94.90
11126;DHT22;5617;54.046;10.676;2023-04-03T09:44:27;9.40;94.70
11126;DHT22;5617;54.046;10.676;2023-04-03T09:46:36;9.60;94.90
11126;DHT22;5617;54.046;10.676;2023-04-03T09:48:51;9.70;94.90
11126;DHT22;5617;54.046;10.676;2023-04-03T09:51:01;9.70;94.80
11126;DHT22;5617;54.046;10.676;2023-04-03T09:53:27;9.70;94.40
11126;DHT22;5617;54.046;10.676;2023-04-03T09:55:42;9.50;94.00
11126;DHT22;5617;54.046;10.676;2023-04-03T09:57:51;9.60;94.00
11126;DHT22;5617;54.046;10.676;2023-04-03T10:00:00;9.80;94.50
11126;DHT22;5617;54.046;10.676;2023-04-03T10:02:38;9.70;94.00
11126;DHT22;5617;54.046;10.676;2023-04-03T10:04:46;9.70;94.00
11126;DHT22;5617;54.046;10.676;2023-04-03T10:06:55;9.70;94.00
11126;DHT22;5617;54.046;10.676;2023-04-03T10:09:10;9.60;93.90
11126;DHT22;5617;54.046;10.676;2023-04-03T10:11:22;9.70;94.10
11126;DHT22;5617;54.046;10.676;2023-04-03T10:13:32;9.90;93.70
11126;DHT22;5617;54.046;10.676;2023-04-03T10:15:45;10.00;93.80
11126;DHT22;5617;54.046;10.676;2023-04-03T10:17:57;9.90;93.80
11126;DHT22;5617;54.046;10.676;2023-04-03T10:20:15;10.00;94.00
11126;DHT22;5617;54.046;10.676;2023-04-03T10:22:36;10.20;94.00
11126;DHT22;5617;54.046;10.676;2023-04-03T10:24:51;10.30;93.60
11126;DHT22;5617;54.046;10.676;2023-04-03T10:27:05;10.10;93.50
11126;DHT22;5617;54.046;10.676;2023-04-03T10:29:21;10.10;93.80
11126;DHT22;5617;54.046;10.676;2023-04-03T10:31:37;10.10;93.40
11126;DHT22;5617;54.046;10.676;2023-04-03T10:33:55;10.00;93.40
11126;DHT22;5617;54.046;10.676;2023-04-03T10:36:19;10.00;93.20
11126;DHT22;5617;54.046;10.676;2023-04-03T10:38:39;9.90;92.90
11126;DHT22;5617;54.046;10.676;2023-04-03T10:40:57;9.90;93.10
11126;DHT22;5617;54.046;10.676;2023-04-03T10:43:12;9.90;93.20
11126;DHT22;5617;54.046;10.676;2023-04-03T10:45:26;10.00;93.20
11126;DHT22;5617;54.046;10.676;2023-04-03T10:47:42;10.00;92.70
11126;DHT22;5617;54.046;10.676;2023-04-03T10:49:58;9.80;93.00
11126;DHT22;5617;54.046;10.676;2023-04-03T10:52:14;9.60;92.90
11126;DHT22;5617;54.046;10.676;2023-04-03T10:54:30;9.70;92.70
11126;DHT22;5617;54.046;10.676;2023-04-03T10:56:42;9.80;92.80
11126;DHT22;5617;54.046;10.676;2023-04-03T10:58:54;10.00;92.80
11126;DHT22;5617;54.046;10.676;2023-04-03T11:01:08;9.90;92.60
11126;DHT22;5617;54.046;10.676;2023-04-03T11:03:27;10.00;92.50
11126;DHT22;5617;54.046;10.676;2023-04-03T11:05:40;9.90;92.50
11126;DHT22;5617;54.046;10.676;2023-04-03T11:07:52;10.00;92.40
11126;DHT22;5617;54.046;10.676;2023-04-03T11:10:05;9.90;92.40
11126;DHT22;5617;54.046;10.676;2023-04-03T11:12:24;9.80;92.20
11126;DHT22;5617;54.046;10.676;2023-04-03T11:14:35;9.60;92.50
11126;DHT22;5617;54.046;10.676;2023-04-03T11:16:46;9.40;92.20
11126;DHT22;5617;54.046;10.676;2023-04-03T11:18:57;9.50;92.30
11126;DHT22;5617;54.046;10.676;2023-04-03T11:21:11;9.50;92.30
11126;DHT22;5617;54.046;10.676;2023-04-03T11:23:24;9.50;92.00
11126;DHT22;5617;54.046;10.676;2023-04-03T11:25:35;9.40;91.90
11126;DHT22;5617;54.046;10.676;2023-04-03T11:27:47;9.50;92.40
11126;DHT22;5617;54.046;10.676;2023-04-03T11:29:58;9.40;92.20
11126;DHT22;5617;54.046;10.676;2023-04-03T11:32:17;9.30;92.40
11126;DHT22;5617;54.046;10.676;2023-04-03T11:34:35;9.40;92.30
11126;DHT22;5617;54.046;10.676;2023-04-03T11:36:47;9.60;92.50
11126;DHT22;5617;54.046;10.676;2023-04-03T11:39:00;9.70;92.20
11126;DHT22;5617;54.046;10.676;2023-04-03T11:41:10;9.90;92.30
11126;DHT22;5617;54.046;10.676;2023-04-03T11:43:23;9.90;91.90
11126;DHT22;5617;54.046;10.676;2023-04-03T11:45:35;9.90;91.90
11126;DHT22;5617;54.046;10.676;2023-04-03T11:47:46;9.80;91.30
11126;DHT22;5617;54.046;10.676;2023-04-03T11:50:00;9.70;91.50
11126;DHT22;5617;54.046;10.676;2023-04-03T11:54:55;9.90;91.60
11126;DHT22;5617;54.046;10.676;2023-04-03T11:57:33;10.00;91.50
11126;DHT22;5617;54.046;10.676;2023-04-03T11:59:50;10.00;91.60
11126;DHT22;5617;54.046;10.676;2023-04-03T12:01:58;9.90;91.40
11126;DHT22;5617;54.046;10.676;2023-04-03T12:04:14;9.70;91.20
11126;DHT22;5617;54.046;10.676;2023-04-03T12:09:24;9.60;91.00
11126;DHT22;5617;54.046;10.676;2023-04-03T12:11:35;9.50;91.00
11126;DHT22;5617;54.046;10.676;2023-04-03T12:14:03;9.70;91.10
11126;DHT22;5617;54.046;10.676;2023-04-03T12:16:20;9.70;91.00
11126;DHT22;5617;54.046;10.676;2023-04-03T12:18:41;9.90;91.60
11126;DHT22;5617;54.046;10.676;2023-04-03T12:20:54;10.30;91.40
11126;DHT22;5617;54.046;10.676;2023-04-03T12:23:08;10.40;90.70
11126;DHT22;5617;54.046;10.676;2023-04-03T12:25:48;10.20;90.80
11126;DHT22;5617;54.046;10.676;2023-04-03T12:27:56;10.30;91.00
11126;DHT22;5617;54.046;10.676;2023-04-03T12:30:14;10.20;91.20
11126;DHT22;5617;54.046;10.676;2023-04-03T12:32:41;10.50;91.30
11126;DHT22;5617;54.046;10.676;2023-04-03T12:35:01;10.50;90.60
11126;DHT22;5617;54.046;10.676;2023-04-03T12:37:21;10.20;90.50
11126;DHT22;5617;54.046;10.676;2023-04-03T12:39:48;9.80;90.70
11126;DHT22;5617;54.046;10.676;2023-04-03T12:42:05;9.90;91.00
11126;DHT22;5617;54.046;10.676;2023-04-03T12:44:42;10.00;91.20
11126;DHT22;5617;54.046;10.676;2023-04-03T12:46:54;9.80;91.10
11126;DHT22;5617;54.046;10.676;2023-04-03T12:49:20;9.80;91.10
11126;DHT22;5617;54.046;10.676;2023-04-03T12:51:35;9.70;91.10
11126;DHT22;5617;54.046;10.676;2023-04-03T12:53:45;9.60;91.10
11126;DHT22;5617;54.046;10.676;2023-04-03T12:55:54;9.70;91.10
11126;DHT22;5617;54.046;10.676;2023-04-03T12:58:14;9.70;91.00
11126;DHT22;5617;54.046;10.676;2023-04-03T13:00:33;9.70;91.40
11126;DHT22;5617;54.046;10.676;2023-04-03T13:02:44;10.00;91.20
11126;DHT22;5617;54.046;10.676;2023-04-03T13:04:55;10.00;91.00
11126;DHT22;5617;54.046;10.676;2023-04-03T13:07:04;9.90;90.90
11126;DHT22;5617;54.046;10.676;2023-04-03T13:09:22;9.80;90.90
11126;DHT22;5617;54.046;10.676;2023-04-03T13:11:35;9.90;91.20
11126;DHT22;5617;54.046;10.676;2023-04-03T13:13:54;9.80;91.10
11126;DHT22;5617;54.046;10.676;2023-04-03T13:16:09;9.60;91.30
11126;DHT22;5617;54.046;10.676;2023-04-03T13:18:25;9.70;91.60
11126;DHT22;5617;54.046;10.676;2023-04-03T13:20:36;9.90;91.60
11126;DHT22;5617;54.046;10.676;2023-04-03T13:22:48;9.70;91.10
11126;DHT22;5617;54.046;10.676;2023-04-03T13:24:59;9.60;91.00
11126;DHT22;5617;54.046;10.676;2023-04-03T13:27:11;9.70;91.40
11126;DHT22;5617;54.046;10.676;2023-04-03T13:29:23;9.90;91.40
11126;DHT22;5617;54.046;10.676;2023-04-03T13:31:32;10.00;91.20
11126;DHT22;5617;54.046;10.676;2023-04-03T13:33:56;9.90;91.20
11126;DHT22;5617;54.046;10.676;2023-04-03T13:36:06;10.00;91.40
11126;DHT22;5617;54.046;10.676;2023-04-03T13:38:23;10.00;91.40
11126;DHT22;5617;54.046;10.676;2023-04-03T13:40:31;10.00;91.30
11126;DHT22;5617;54.046;10.676;2023-04-03T13:42:40;9.70;91.20
11126;DHT22;5617;54.046;10.676;2023-04-03T13:44:48;9.40;91.20
11126;DHT22;5617;54.046;10.676;2023-04-03T13:46:58;9.20;91.60
11126;DHT22;5617;54.046;10.676;2023-04-03T13:49:19;9.30;92.00
11126;DHT22;5617;54.046;10.676;2023-04-03T13:51:28;9.90;92.10
11126;DHT22;5617;54.046;10.676;2023-04-03T13:53:43;10.00;91.80
11126;DHT22;5617;54.046;10.676;2023-04-03T13:55:55;9.80;91.60
11126;DHT22;5617;54.046;10.676;2023-04-03T13:58:21;9.30;91.50
11126;DHT22;5617;54.046;10.676;2023-04-03T14:00:34;8.80;92.00
11126;DHT22;5617;54.046;10.676;2023-04-03T14:02:47;8.80;92.30
11126;DHT22;5617;54.046;10.676;2023-04-03T14:04:58;8.70;92.70